Time;durP1;ratioP1;P1;durP2;ratioP2;P2;SDS_P1;SDS_P2;PMS_P1;PMS_P2;Temp;Humidity;BMP_temperature;BMP_pressure;BME280_temperature;BME280_humidity;BME280_pressure;Samples;Min_cycle;Max_cycle;Signal;HPM_P1;HPM_P2
2023/02/06 00:02:18;;;;;;;;;;;;;;;;;;5097786;28;20066;-68
2023/02/06 00:04:44;;;;;;;;;;;;;;;;;;5097744;28;19952;-68
2023/02/06 00:07:10;;;;;;;;;;;;;;;;;;5097676;28;19951;-68
2023/02/06 00:09:36;;;;;;;;;;;;;;;;;;5097501;28;19985;-68
2023/02/06 00:12:02;;;;;;;;;;;;;;;;;;5097850;28;19971;-68
2023/02/06 00:14:27;;;;;;;;;;;;;;;;;;5097512;28;20512;-68
2023/02/06 00:16:53;;;;;;;;;;;;;;;;;;5097558;28;19956;-68
2023/02/06 00:19:19;;;;;;;;;;;;;;;;;;5097419;28;20371;-68
2023/02/06 00:21:45;;;;;;;;;;;;;;;;;;5097699;28;19950;-68
2023/02/06 00:24:11;;;;;;;;;;;;;;;;;;5097940;28;20351;-68
2023/02/06 00:26:37;;;;;;;;;;;;;;;;;;5097555;28;19959;-68
2023/02/06 00:29:04;;;;;;;;;;;;;;;;;;5097558;28;19961;-68
2023/02/06 00:31:30;;;;;;;;;;;;;;;;;;5097241;28;19972;-68
2023/02/06 00:33:56;;;;;;;;;;;;;;;;;;5097407;28;19957;-68
2023/02/06 00:36:22;;;;;;;;;;;;;;;;;;5097486;28;19996;-68
2023/02/06 00:38:48;;;;;;;;;;;;;;;;;;5097130;28;20426;-68
2023/02/06 00:41:14;;;;;;;;;;;;;;;;;;5097723;28;19954;-68
2023/02/06 00:43:42;;;;;;;;;;;;;;;;;;5097038;28;20011;-68
2023/02/06 00:46:08;;;;;;;;;;;;;;;;;;5097163;28;20326;-68
2023/02/06 00:48:33;;;;;;;;;;;;;;;;;;5098000;28;19959;-68
2023/02/06 00:50:59;;;;;;;;;;;;;;;;;;5097161;28;19949;-68
2023/02/06 00:53:25;;;;;;;;;;;;;;;;;;5096720;28;19972;-68
2023/02/06 00:55:51;;;;;;;;;;;;;;;;;;5096747;28;19952;-68
2023/02/06 00:58:17;;;;;;;;;;;;;;;;;;5096727;28;20019;-68
2023/02/06 01:00:43;;;;;;;;;;;;;;;;;;5096715;28;20048;-68
2023/02/06 01:03:09;;;;;;;;;;;;;;;;;;5096813;28;19963;-68
2023/02/06 01:05:35;;;;;;;;;;;;;;;;;;5096866;28;19957;-68
2023/02/06 01:08:01;;;;;;;;;;;;;;;;;;5096398;28;19950;-68
2023/02/06 01:10:26;;;;;;;;;;;;;;;;;;5096829;28;20006;-68
2023/02/06 01:12:52;;;;;;;;;;;;;;;;;;5096855;28;20449;-68
2023/02/06 01:15:18;;;;;;;;;;;;;;;;;;5096711;28;19951;-68
2023/02/06 01:17:44;;;;;;;;;;;;;;;;;;5096352;28;20415;-68
2023/02/06 01:20:10;;;;;;;;;;;;;;;;;;5096302;28;19959;-69
2023/02/06 01:22:36;;;;;;;;;;;;;;;;;;5096265;28;20431;-68
2023/02/06 01:25:02;;;;;;;;;;;;;;;;;;5096261;28;19951;-68
2023/02/06 01:27:28;;;;;;;;;;;;;;;;;;5096760;28;20315;-68
2023/02/06 01:29:53;;;;;;;;;;;;;;;;;;5096409;28;19990;-68
2023/02/06 01:32:19;;;;;;;;;;;;;;;;;;5096055;28;20353;-69
2023/02/06 01:34:45;;;;;;;;;;;;;;;;;;5096296;28;19953;-68
2023/02/06 01:37:11;;;;;;;;;;;;;;;;;;5096230;28;19953;-68
2023/02/06 01:39:37;;;;;;;;;;;;;;;;;;5096277;28;20007;-68
2023/02/06 01:42:03;;;;;;;;;;;;;;;;;;5095908;28;20533;-68
2023/02/06 01:44:29;;;;;;;;;;;;;;;;;;5095839;28;19953;-68
2023/02/06 01:46:55;;;;;;;;;;;;;;;;;;5095843;28;20417;-68
2023/02/06 01:49:21;;;;;;;;;;;;;;;;;;5095749;28;19957;-68
2023/02/06 01:51:47;;;;;;;;;;;;;;;;;;5096232;28;19981;-68
2023/02/06 01:54:12;;;;;;;;;;;;;;;;;;5095674;28;20351;-68
2023/02/06 01:56:38;;;;;;;;;;;;;;;;;;5095877;28;19953;-68
2023/02/06 01:59:04;;;;;;;;;;;;;;;;;;5095538;28;19950;-68
2023/02/06 02:01:30;;;;;;;;;;;;;;;;;;5095488;28;20050;-68
2023/02/06 02:03:56;;;;;;;;;;;;;;;;;;5095733;28;19959;-68
2023/02/06 02:06:22;;;;;;;;;;;;;;;;;;5095687;28;19952;-68
2023/02/06 02:08:48;;;;;;;;;;;;;;;;;;5095186;28;19994;-68
2023/02/06 02:11:14;;;;;;;;;;;;;;;;;;5095186;28;20309;-68
2023/02/06 02:13:40;;;;;;;;;;;;;;;;;;5094818;28;19965;-68
2023/02/06 02:16:06;;;;;;;;;;;;;;;;;;5095427;28;19994;-68
2023/02/06 02:18:32;;;;;;;;;;;;;;;;;;5096017;28;20394;-68
2023/02/06 02:20:58;;;;;;;;;;;;;;;;;;5095146;28;19991;-68
2023/02/06 02:23:24;;;;;;;;;;;;;;;;;;5095122;28;20429;-68
2023/02/06 02:25:50;;;;;;;;;;;;;;;;;;5095066;28;19954;-68
2023/02/06 02:28:16;;;;;;;;;;;;;;;;;;5095329;28;19986;-68
2023/02/06 02:30:42;;;;;;;;;;;;;;;;;;5094941;28;19953;-68
2023/02/06 02:33:07;;;;;;;;;;;;;;;;;;5095389;28;19968;-68
2023/02/06 02:35:33;;;;;;;;;;;;;;;;;;5094821;28;19979;-68
2023/02/06 02:37:59;;;;;;;;;;;;;;;;;;5095041;28;19958;-68
2023/02/06 02:40:25;;;;;;;;;;;;;;;;;;5095342;28;19952;-68
2023/02/06 02:42:51;;;;;;;;;;;;;;;;;;5094748;28;19955;-68
2023/02/06 02:45:17;;;;;;;;;;;;;;;;;;5077330;28;19956;-68
2023/02/06 02:47:43;;;;;;;;;;;;;;;;;;5094634;28;19987;-68
2023/02/06 02:50:09;;;;;;;;;;;;;;;;;;5095143;28;20371;-68
2023/02/06 02:52:34;;;;;;;;;;;;;;;;;;5094755;28;19979;-68
2023/02/06 02:55:00;;;;;;;;;;;;;;;;;;5094483;28;20336;-68
2023/02/06 02:57:26;;;;;;;;;;;;;;;;;;5094689;28;19986;-68
2023/02/06 02:59:52;;;;;;;;;;;;;;;;;;5094430;28;19977;-68
2023/02/06 03:02:18;;;;;;;;;;;;;;;;;;5094606;28;20038;-68
2023/02/06 03:04:44;;;;;;;;;;;;;;;;;;5094687;28;20355;-68
2023/02/06 03:07:10;;;;;;;;;;;;;;;;;;5094589;28;19954;-68
2023/02/06 03:09:36;;;;;;;;;;;;;;;;;;5094279;28;20033;-68
2023/02/06 03:12:02;;;;;;;;;;;;;;;;;;5094189;28;20440;-68
2023/02/06 03:14:28;;;;;;;;;;;;;;;;;;5075930;28;19984;-68
2023/02/06 03:16:54;;;;;;;;;;;;;;;;;;5094412;28;19956;-68
2023/02/06 03:19:20;;;;;;;;;;;;;;;;;;5094390;28;19955;-68
2023/02/06 03:21:45;;;;;;;;;;;;;;;;;;5094323;28;20043;-68
2023/02/06 03:24:11;;;;;;;;;;;;;;;;;;5094065;28;19967;-68
2023/02/06 03:26:37;;;;;;;;;;;;;;;;;;5093172;28;19950;-68
2023/02/06 03:29:03;;;;;;;;;;;;;;;;;;5094229;28;20448;-68
2023/02/06 03:31:29;;;;;;;;;;;;;;;;;;5093912;28;20047;-68
2023/02/06 03:33:55;;;;;;;;;;;;;;;;;;5094141;28;19957;-68
2023/02/06 03:36:21;;;;;;;;;;;;;;;;;;5094164;28;19951;-68
2023/02/06 03:38:47;;;;;;;;;;;;;;;;;;5094127;28;19959;-68
2023/02/06 03:41:13;;;;;;;;;;;;;;;;;;5093861;28;19959;-68
2023/02/06 03:43:39;;;;;;;;;;;;;;;;;;5093864;28;20036;-68
2023/02/06 03:46:04;;;;;;;;;;;;;;;;;;5094063;28;19951;-68
2023/02/06 03:48:30;;;;;;;;;;;;;;;;;;5076536;28;19971;-68
2023/02/06 03:50:56;;;;;;;;;;;;;;;;;;5093731;28;20021;-68
2023/02/06 03:53:22;;;;;;;;;;;;;;;;;;5093668;28;20332;-68
2023/02/06 03:55:48;;;;;;;;;;;;;;;;;;5093923;28;19995;-68
2023/02/06 03:58:14;;;;;;;;;;;;;;;;;;5093641;28;19953;-68
2023/02/06 04:00:40;;;;;;;;;;;;;;;;;;5093631;28;19967;-68
2023/02/06 04:03:06;;;;;;;;;;;;;;;;;;5093942;28;19960;-68
2023/02/06 04:05:32;;;;;;;;;;;;;;;;;;5093895;28;20002;-68
2023/02/06 04:07:57;;;;;;;;;;;;;;;;;;5093624;28;19953;-68
2023/02/06 04:10:23;;;;;;;;;;;;;;;;;;5094129;28;20469;-68
2023/02/06 04:12:49;;;;;;;;;;;;;;;;;;5093654;28;19978;-68
2023/02/06 04:15:15;;;;;;;;;;;;;;;;;;5093486;28;20012;-68
2023/02/06 04:17:41;;;;;;;;;;;;;;;;;;5093521;28;19959;-68
2023/02/06 04:20:07;;;;;;;;;;;;;;;;;;5093735;28;19952;-68
2023/02/06 04:22:33;;;;;;;;;;;;;;;;;;5093437;28;20050;-68
2023/02/06 04:24:59;;;;;;;;;;;;;;;;;;5093464;28;20055;-68
2023/02/06 04:27:25;;;;;;;;;;;;;;;;;;5093987;28;20405;-68
2023/02/06 04:29:51;;;;;;;;;;;;;;;;;;5093667;28;19953;-68
2023/02/06 04:32:17;;;;;;;;;;;;;;;;;;5093274;28;20442;-68
2023/02/06 04:34:43;;;;;;;;;;;;;;;;;;5093397;28;19998;-68
2023/02/06 04:37:11;;;;;;;;;;;;;;;;;;5093870;28;20334;-68
2023/02/06 04:39:37;;;;;;;;;;;;;;;;;;5097118;28;19951;-68
2023/02/06 04:42:03;;;;;;;;;;;;;;;;;;5096993;28;19956;-68
2023/02/06 04:44:29;;;;;;;;;;;;;;;;;;5097042;28;19954;-68
2023/02/06 04:46:55;;;;;;;;;;;;;;;;;;5096923;28;20088;-67
2023/02/06 04:49:21;;;;;;;;;;;;;;;;;;5096939;28;19983;-68
2023/02/06 04:51:47;;;;;;;;;;;;;;;;;;5096825;28;19970;-68
2023/02/06 04:54:13;;;;;;;;;;;;;;;;;;5097120;28;19956;-68
2023/02/06 04:56:39;;;;;;;;;;;;;;;;;;5097088;28;20033;-67
2023/02/06 04:59:05;;;;;;;;;;;;;;;;;;5097309;28;20393;-68
2023/02/06 05:01:31;;;;;;;;;;;;;;;;;;5096970;28;20002;-68
2023/02/06 05:03:56;;;;;;;;;;;;;;;;;;5096943;28;20392;-68
2023/02/06 05:06:22;;;;;;;;;;;;;;;;;;5096624;28;19950;-68
2023/02/06 05:08:48;;;;;;;;;;;;;;;;;;5096531;28;19992;-68
2023/02/06 05:11:14;;;;;;;;;;;;;;;;;;5096545;28;19955;-68
2023/02/06 05:13:41;;;;;;;;;;;;;;;;;;5096640;28;19988;-68
2023/02/06 05:16:07;;;;;;;;;;;;;;;;;;5096449;28;19957;-68
2023/02/06 05:18:33;;;;;;;;;;;;;;;;;;5096389;28;19988;-68
2023/02/06 05:20:59;;;;;;;;;;;;;;;;;;5096598;28;19953;-68
2023/02/06 05:23:25;;;;;;;;;;;;;;;;;;5096578;28;19950;-68
2023/02/06 05:25:51;;;;;;;;;;;;;;;;;;5096821;28;20038;-68
2023/02/06 05:28:16;;;;;;;;;;;;;;;;;;5096213;28;19956;-68
2023/02/06 05:30:42;;;;;;;;;;;;;;;;;;5096065;28;20337;-68
2023/02/06 05:33:08;;;;;;;;;;;;;;;;;;5096024;28;19971;-68
2023/02/06 05:35:34;;;;;;;;;;;;;;;;;;5096063;28;20062;-68
2023/02/06 05:38:00;;;;;;;;;;;;;;;;;;5096018;28;19949;-68
2023/02/06 05:40:26;;;;;;;;;;;;;;;;;;5096238;28;19951;-68
2023/02/06 05:42:52;;;;;;;;;;;;;;;;;;5096160;28;20006;-68
2023/02/06 05:45:18;;;;;;;;;;;;;;;;;;5095878;28;19960;-68
2023/02/06 05:47:44;;;;;;;;;;;;;;;;;;5095857;28;20331;-68
2023/02/06 05:50:09;;;;;;;;;;;;;;;;;;5095110;28;20000;-68
2023/02/06 05:52:35;;;;;;;;;;;;;;;;;;5095943;28;20031;-68
2023/02/06 05:55:01;;;;;;;;;;;;;;;;;;5095967;28;19954;-68
2023/02/06 05:57:27;;;;;;;;;;;;;;;;;;5095581;28;19953;-68
2023/02/06 05:59:53;;;;;;;;;;;;;;;;;;5096157;28;19958;-68
2023/02/06 06:02:19;;;;;;;;;;;;;;;;;;5095538;28;19961;-68
2023/02/06 06:04:45;;;;;;;;;;;;;;;;;;5096088;28;20381;-68
2023/02/06 06:07:11;;;;;;;;;;;;;;;;;;5095418;28;19976;-68
2023/02/06 06:09:36;;;;;;;;;;;;;;;;;;5095221;28;19988;-68
2023/02/06 06:12:02;;;;;;;;;;;;;;;;;;5095524;28;20020;-68
2023/02/06 06:14:28;;;;;;;;;;;;;;;;;;5095536;28;19975;-68
2023/02/06 06:16:54;;;;;;;;;;;;;;;;;;5095832;28;19956;-68
2023/02/06 06:19:20;;;;;;;;;;;;;;;;;;5095442;28;19984;-68
2023/02/06 06:21:46;;;;;;;;;;;;;;;;;;5095705;28;19954;-68
2023/02/06 06:24:12;;;;;;;;;;;;;;;;;;5095408;28;19957;-68
2023/02/06 06:26:38;;;;;;;;;;;;;;;;;;5095284;28;19952;-68
2023/02/06 06:29:04;;;;;;;;;;;;;;;;;;5094994;28;20004;-68
2023/02/06 06:31:30;;;;;;;;;;;;;;;;;;5094891;28;20340;-68
2023/02/06 06:33:55;;;;;;;;;;;;;;;;;;5094880;28;20086;-68
2023/02/06 06:36:21;;;;;;;;;;;;;;;;;;5095114;28;20369;-68
2023/02/06 06:38:47;;;;;;;;;;;;;;;;;;5095408;28;19950;-68
2023/02/06 06:41:13;;;;;;;;;;;;;;;;;;5094813;28;20543;-68
2023/02/06 06:43:41;;;;;;;;;;;;;;;;;;5095353;28;19951;-68
2023/02/06 06:46:06;;;;;;;;;;;;;;;;;;5094947;28;20057;-68
2023/02/06 06:48:33;;;;;;;;;;;;;;;;;;5094962;28;19988;-68
2023/02/06 06:50:59;;;;;;;;;;;;;;;;;;5094625;28;19994;-68
2023/02/06 06:53:25;;;;;;;;;;;;;;;;;;5094512;28;19971;-68
2023/02/06 06:55:50;;;;;;;;;;;;;;;;;;5094811;28;19956;-68
2023/02/06 06:58:16;;;;;;;;;;;;;;;;;;5094496;28;20003;-68
2023/02/06 07:00:42;;;;;;;;;;;;;;;;;;5094327;28;20363;-68
2023/02/06 07:03:10;;;;;;;;;;;;;;;;;;5094408;28;19957;-68
2023/02/06 07:05:36;;;;;;;;;;;;;;;;;;5094324;28;19956;-68
2023/02/06 07:08:02;;;;;;;;;;;;;;;;;;5094347;28;19953;-68
2023/02/06 07:10:28;;;;;;;;;;;;;;;;;;5076015;28;20412;-68
2023/02/06 07:12:55;;;;;;;;;;;;;;;;;;5094122;28;20021;-68
2023/02/06 07:15:21;;;;;;;;;;;;;;;;;;5076336;28;19961;-68
2023/02/06 07:17:47;;;;;;;;;;;;;;;;;;5094161;28;20044;-68
2023/02/06 07:20:13;;;;;;;;;;;;;;;;;;5094444;28;19952;-68
2023/02/06 07:22:38;;;;;;;;;;;;;;;;;;5094119;28;20402;-68
2023/02/06 07:25:04;;;;;;;;;;;;;;;;;;5094018;28;19952;-68
2023/02/06 07:27:30;;;;;;;;;;;;;;;;;;5093985;28;19992;-68
2023/02/06 07:29:56;;;;;;;;;;;;;;;;;;5094556;28;20399;-68
2023/02/06 07:32:22;;;;;;;;;;;;;;;;;;5094176;28;19976;-68
2023/02/06 07:34:48;;;;;;;;;;;;;;;;;;5093952;28;19951;-68
2023/02/06 07:37:14;;;;;;;;;;;;;;;;;;5094052;28;19957;-68
2023/02/06 07:39:41;;;;;;;;;;;;;;;;;;5094173;28;19953;-68
2023/02/06 07:42:07;;;;;;;;;;;;;;;;;;5075530;28;20005;-68
2023/02/06 07:44:33;;;;;;;;;;;;;;;;;;5093836;28;20002;-68
2023/02/06 07:46:58;;;;;;;;;;;;;;;;;;5094120;28;19952;-68
2023/02/06 07:49:24;;;;;;;;;;;;;;;;;;5093800;28;20432;-68
2023/02/06 07:51:50;;;;;;;;;;;;;;;;;;5093701;28;20359;-68
2023/02/06 07:54:16;;;;;;;;;;;;;;;;;;5093301;28;20059;-70
2023/02/06 07:56:42;;;;;;;;;;;;;;;;;;5097425;28;19959;-71
2023/02/06 07:59:08;;;;;;;;;;;;;;;;;;5075505;28;19967;-71
2023/02/06 08:01:34;;;;;;;;;;;;;;;;;;5104998;28;19964;-70
2023/02/06 08:04:00;;;;;;;;;;;;;;;;;;5114329;28;19986;-71
2023/02/06 08:06:26;;;;;;;;;;;;;;;;;;5108586;28;20044;-72
2023/02/06 08:08:52;;;;;;;;;;;;;;;;;;5100668;28;20015;-70
2023/02/06 08:11:18;;;;;;;;;;;;;;;;;;5114216;28;19952;-71
2023/02/06 08:13:43;;;;;;;;;;;;;;;;;;5117166;28;20097;-70
2023/02/06 08:16:09;;;;;;;;;;;;;;;;;;5118623;28;20425;-71
2023/02/06 08:18:35;;;;;;;;;;;;;;;;;;5118006;28;19999;-70
2023/02/06 08:21:01;;;;;;;;;;;;;;;;;;5117994;28;19956;-71
2023/02/06 08:23:27;;;;;;;;;;;;;;;;;;5124654;27;19960;-69
2023/02/06 08:25:53;;;;;;;;;;;;;;;;;;5138956;27;20036;-71
2023/02/06 08:28:19;;;;;;;;;;;;;;;;;;5137417;27;19965;-70
2023/02/06 08:30:45;;;;;;;;;;;;;;;;;;5108967;27;19961;-71
2023/02/06 08:33:11;;;;;;;;;;;;;;;;;;5127074;27;19978;-70
2023/02/06 08:35:37;;;;;;;;;;;;;;;;;;5119166;27;19960;-68
2023/02/06 08:38:03;;;;;;;;;;;;;;;;;;5137881;27;19952;-69
2023/02/06 08:40:29;;;;;;;;;;;;;;;;;;5127813;27;19965;-71
2023/02/06 08:42:55;;;;;;;;;;;;;;;;;;5136099;27;19965;-69
2023/02/06 08:45:21;;;;;;;;;;;;;;;;;;5119510;27;19962;-67
2023/02/06 08:47:47;;;;;;;;;;;;;;;;;;5117637;28;19991;-71
2023/02/06 08:50:12;;;;;;;;;;;;;;;;;;5116750;27;19949;-71
2023/02/06 08:52:39;;;;;;;;;;;;;;;;;;5117271;28;19972;-68
2023/02/06 08:55:05;;;;;;;;;;;;;;;;;;5117883;28;19951;-68
2023/02/06 08:57:30;;;;;;;;;;;;;;;;;;5131431;27;19959;-68
2023/02/06 08:59:56;;;;;;;;;;;;;;;;;;5119121;27;20371;-68
2023/02/06 09:02:22;;;;;;;;;;;;;;;;;;5117450;28;19983;-69
2023/02/06 09:04:48;;;;;;;;;;;;;;;;;;5117130;28;20333;-68
2023/02/06 09:07:14;;;;;;;;;;;;;;;;;;5121239;27;19962;-68
2023/02/06 09:09:40;;;;;;;;;;;;;;;;;;5128188;27;19988;-70
2023/02/06 09:12:06;;;;;;;;;;;;;;;;;;5116872;28;20450;-70
2023/02/06 09:14:34;;;;;;;;;;;;;;;;;;5119738;27;20002;-69
2023/02/06 09:17:00;;;;;;;;;;;;;;;;;;5117093;28;19949;-69
2023/02/06 09:19:27;;;;;;;;;;;;;;;;;;5116797;28;19954;-71
2023/02/06 09:21:52;;;;;;;;;;;;;;;;;;5117350;28;20046;-70
2023/02/06 09:24:18;;;;;;;;;;;;;;;;;;5115411;28;20433;-70
2023/02/06 09:26:44;;;;;;;;;;;;;;;;;;5116735;27;19958;-71
2023/02/06 09:29:10;;;;;;;;;;;;;;;;;;5135501;27;20421;-73
2023/02/06 09:31:36;;;;;;;;;;;;;;;;;;5135403;27;20034;-69
2023/02/06 09:34:03;;;;;;;;;;;;;;;;;;5116865;27;20346;-69
2023/02/06 09:36:29;;;;;;;;;;;;;;;;;;5098163;28;19961;-69
2023/02/06 09:38:56;;;;;;;;;;;;;;;;;;5116583;27;20422;-69
2023/02/06 09:41:22;;;;;;;;;;;;;;;;;;5116263;27;19955;-68
2023/02/06 09:43:48;;;;;;;;;;;;;;;;;;5121415;27;20038;-69
2023/02/06 09:46:14;;;;;;;;;;;;;;;;;;5116216;28;20380;-72
2023/02/06 09:48:41;;;;;;;;;;;;;;;;;;5119680;27;19963;-71
2023/02/06 09:51:06;;;;;;;;;;;;;;;;;;5117014;27;20059;-70
2023/02/06 09:53:32;;;;;;;;;;;;;;;;;;5137150;27;19968;-71
2023/02/06 09:55:58;;;;;;;;;;;;;;;;;;5136627;27;19999;-71
2023/02/06 09:58:24;;;;;;;;;;;;;;;;;;5136571;27;19953;-72
2023/02/06 10:00:50;;;;;;;;;;;;;;;;;;5120928;27;19959;-68
2023/02/06 10:03:16;;;;;;;;;;;;;;;;;;5115801;28;20000;-67
2023/02/06 10:05:42;;;;;;;;;;;;;;;;;;5117777;27;19996;-68
2023/02/06 10:08:08;;;;;;;;;;;;;;;;;;5135482;27;19958;-68
2023/02/06 10:10:33;;;;;;;;;;;;;;;;;;5136357;27;20373;-67
2023/02/06 10:12:59;;;;;;;;;;;;;;;;;;5133281;27;19982;-67
2023/02/06 10:15:25;;;;;;;;;;;;;;;;;;5135446;27;19946;-68
2023/02/06 10:17:51;;;;;;;;;;;;;;;;;;5134841;27;20017;-67
2023/02/06 10:20:17;;;;;;;;;;;;;;;;;;5134693;27;19951;-68
2023/02/06 10:22:43;;;;;;;;;;;;;;;;;;5115795;27;19965;-68
2023/02/06 10:25:09;;;;;;;;;;;;;;;;;;5115048;28;19952;-68
2023/02/06 10:27:35;;;;;;;;;;;;;;;;;;5115355;28;20053;-69
2023/02/06 10:30:01;;;;;;;;;;;;;;;;;;5115980;28;19953;-68
2023/02/06 10:32:27;;;;;;;;;;;;;;;;;;5115292;27;20446;-68
2023/02/06 10:34:52;;;;;;;;;;;;;;;;;;5114926;28;19956;-70
2023/02/06 10:37:18;;;;;;;;;;;;;;;;;;5115554;28;19948;-70
2023/02/06 10:39:44;;;;;;;;;;;;;;;;;;5117187;27;20016;-69
2023/02/06 10:42:10;;;;;;;;;;;;;;;;;;5131178;27;19955;-70
2023/02/06 10:44:36;;;;;;;;;;;;;;;;;;5130628;27;19961;-69
2023/02/06 10:47:02;;;;;;;;;;;;;;;;;;5134040;27;19967;-69
2023/02/06 10:49:29;;;;;;;;;;;;;;;;;;5114989;27;20037;-68
2023/02/06 10:51:55;;;;;;;;;;;;;;;;;;5133428;27;20076;-68
2023/02/06 10:54:21;;;;;;;;;;;;;;;;;;5121231;27;20007;-68
2023/02/06 10:56:46;;;;;;;;;;;;;;;;;;5126961;27;20377;-68
2023/02/06 10:59:12;;;;;;;;;;;;;;;;;;5115116;28;19955;-67
2023/02/06 11:01:38;;;;;;;;;;;;;;;;;;5126771;27;19959;-68
2023/02/06 11:04:04;;;;;;;;;;;;;;;;;;5134692;27;20001;-69
2023/02/06 11:06:30;;;;;;;;;;;;;;;;;;5128477;27;19953;-70
2023/02/06 11:08:56;;;;;;;;;;;;;;;;;;5114526;28;19987;-69
2023/02/06 11:11:22;;;;;;;;;;;;;;;;;;5114635;28;20041;-69
2023/02/06 11:13:50;;;;;;;;;;;;;;;;;;5113962;28;20277;-69
2023/02/06 11:16:16;;;;;;;;;;;;;;;;;;5114349;28;19956;-69
2023/02/06 11:18:42;;;;;;;;;;;;;;;;;;5114748;28;20044;-69
2023/02/06 11:21:08;;;;;;;;;;;;;;;;;;5113971;27;20007;-70
2023/02/06 11:23:33;;;;;;;;;;;;;;;;;;5124791;27;19958;-68
2023/02/06 11:25:59;;;;;;;;;;;;;;;;;;5129937;27;20436;-69
2023/02/06 11:28:25;;;;;;;;;;;;;;;;;;5124082;27;20309;-69
2023/02/06 11:30:51;;;;;;;;;;;;;;;;;;5116831;27;19964;-70
2023/02/06 11:33:17;;;;;;;;;;;;;;;;;;5131468;27;19973;-68
2023/02/06 11:35:43;;;;;;;;;;;;;;;;;;5115930;27;20340;-68
2023/02/06 11:38:09;;;;;;;;;;;;;;;;;;5114270;28;19949;-69
2023/02/06 11:40:35;;;;;;;;;;;;;;;;;;5114251;28;19960;-68
2023/02/06 11:43:01;;;;;;;;;;;;;;;;;;5114438;28;20004;-70
2023/02/06 11:45:27;;;;;;;;;;;;;;;;;;5114195;28;20400;-68
2023/02/06 11:47:52;;;;;;;;;;;;;;;;;;5113364;28;19948;-68
2023/02/06 11:50:18;;;;;;;;;;;;;;;;;;5114896;28;20419;-68
2023/02/06 11:52:44;;;;;;;;;;;;;;;;;;5114024;28;20089;-69
2023/02/06 11:55:10;;;;;;;;;;;;;;;;;;5114354;28;20042;-69
2023/02/06 11:57:36;;;;;;;;;;;;;;;;;;5114344;28;19959;-68
2023/02/06 12:00:02;;;;;;;;;;;;;;;;;;5114052;28;19956;-67
2023/02/06 12:02:28;;;;;;;;;;;;;;;;;;5114021;28;20423;-69
2023/02/06 12:04:54;;;;;;;;;;;;;;;;;;5114044;28;19952;-69
2023/02/06 12:07:20;;;;;;;;;;;;;;;;;;5114229;28;19955;-68
2023/02/06 12:09:45;;;;;;;;;;;;;;;;;;5098745;28;19988;-70
2023/02/06 12:12:11;;;;;;;;;;;;;;;;;;5093795;28;20062;-69
2023/02/06 12:14:37;;;;;;;;;;;;;;;;;;5094075;28;19963;-68
2023/02/06 12:17:03;;;;;;;;;;;;;;;;;;5093537;28;19953;-68
2023/02/06 12:19:30;;;;;;;;;;;;;;;;;;5093551;28;20442;-69
2023/02/06 12:21:56;;;;;;;;;;;;;;;;;;5075381;28;19997;-69
2023/02/06 12:24:22;;;;;;;;;;;;;;;;;;5093482;28;19954;-68
2023/02/06 12:26:48;;;;;;;;;;;;;;;;;;5094002;28;19951;-67
2023/02/06 12:29:14;;;;;;;;;;;;;;;;;;5093450;28;19959;-68
2023/02/06 12:31:40;;;;;;;;;;;;;;;;;;5093640;28;20319;-68
2023/02/06 12:34:06;;;;;;;;;;;;;;;;;;5093677;28;19990;-67
2023/02/06 12:36:32;;;;;;;;;;;;;;;;;;5093385;28;19959;-68
2023/02/06 12:38:58;;;;;;;;;;;;;;;;;;5093954;28;20432;-68
2023/02/06 12:41:24;;;;;;;;;;;;;;;;;;5093575;28;19996;-69
2023/02/06 12:43:49;;;;;;;;;;;;;;;;;;5093324;28;20342;-68
2023/02/06 12:46:15;;;;;;;;;;;;;;;;;;5093245;28;19948;-68
2023/02/06 12:48:41;;;;;;;;;;;;;;;;;;5093483;28;20357;-69
2023/02/06 12:51:07;;;;;;;;;;;;;;;;;;5093194;28;19955;-68
2023/02/06 12:53:34;;;;;;;;;;;;;;;;;;5093722;28;19973;-67
2023/02/06 12:56:00;;;;;;;;;;;;;;;;;;5093435;28;19950;-68
2023/02/06 12:58:27;;;;;;;;;;;;;;;;;;5094175;28;20043;-68
2023/02/06 13:00:54;;;;;;;;;;;;;;;;;;5078656;28;20449;-68
2023/02/06 13:03:19;;;;;;;;;;;;;;;;;;5096974;28;19955;-68
2023/02/06 13:05:45;;;;;;;;;;;;;;;;;;5097052;28;20317;-68
2023/02/06 13:08:11;;;;;;;;;;;;;;;;;;5096504;28;19946;-69
2023/02/06 13:10:37;;;;;;;;;;;;;;;;;;5097221;28;20015;-70
2023/02/06 13:13:03;;;;;;;;;;;;;;;;;;5095792;28;20363;-69
2023/02/06 13:15:29;;;;;;;;;;;;;;;;;;5096795;28;19957;-70
2023/02/06 13:17:55;;;;;;;;;;;;;;;;;;5096425;28;19957;-69
2023/02/06 13:20:21;;;;;;;;;;;;;;;;;;5096982;28;19957;-70
2023/02/06 13:22:49;;;;;;;;;;;;;;;;;;5096376;28;19947;-69
2023/02/06 13:25:15;;;;;;;;;;;;;;;;;;5113457;28;19962;-68
2023/02/06 13:27:41;;;;;;;;;;;;;;;;;;5117063;28;20415;-68
2023/02/06 13:30:07;;;;;;;;;;;;;;;;;;5116911;28;19956;-69
2023/02/06 13:32:36;;;;;;;;;;;;;;;;;;5115971;28;20062;-73
2023/02/06 13:35:01;;;;;;;;;;;;;;;;;;5096185;28;19995;-72
2023/02/06 13:37:27;;;;;;;;;;;;;;;;;;5096137;28;19947;-70
2023/02/06 13:39:53;;;;;;;;;;;;;;;;;;5102646;28;20040;-70
2023/02/06 13:42:19;;;;;;;;;;;;;;;;;;5114494;28;19961;-68
2023/02/06 13:44:45;;;;;;;;;;;;;;;;;;5116044;28;19955;-72
2023/02/06 13:47:11;;;;;;;;;;;;;;;;;;5106484;28;19959;-68
2023/02/06 13:49:37;;;;;;;;;;;;;;;;;;5099650;28;20409;-68
2023/02/06 13:52:03;;;;;;;;;;;;;;;;;;5095357;28;19991;-66
2023/02/06 13:54:29;;;;;;;;;;;;;;;;;;5096231;28;20355;-67
2023/02/06 13:56:54;;;;;;;;;;;;;;;;;;5095860;28;19977;-68
2023/02/06 13:59:20;;;;;;;;;;;;;;;;;;5095651;28;20051;-71
2023/02/06 14:01:46;;;;;;;;;;;;;;;;;;5095572;28;19946;-70
2023/02/06 14:04:12;;;;;;;;;;;;;;;;;;5095649;28;19958;-70
2023/02/06 14:06:38;;;;;;;;;;;;;;;;;;5095501;28;19953;-69
2023/02/06 14:09:04;;;;;;;;;;;;;;;;;;5104267;28;19980;-69
2023/02/06 14:11:30;;;;;;;;;;;;;;;;;;5115086;28;19952;-70
2023/02/06 14:13:56;;;;;;;;;;;;;;;;;;5116132;27;19985;-69
2023/02/06 14:16:21;;;;;;;;;;;;;;;;;;5115830;28;19985;-68
2023/02/06 14:18:47;;;;;;;;;;;;;;;;;;5115685;28;19951;-69
2023/02/06 14:21:13;;;;;;;;;;;;;;;;;;5115677;28;20324;-69
2023/02/06 14:23:39;;;;;;;;;;;;;;;;;;5115558;27;20001;-67
2023/02/06 14:26:05;;;;;;;;;;;;;;;;;;5115803;28;20042;-68
2023/02/06 14:28:31;;;;;;;;;;;;;;;;;;5115821;28;20368;-68
2023/02/06 14:30:57;;;;;;;;;;;;;;;;;;5115592;28;20044;-67
2023/02/06 14:33:23;;;;;;;;;;;;;;;;;;5115321;28;19980;-67
2023/02/06 14:35:49;;;;;;;;;;;;;;;;;;5115544;28;19947;-69
2023/02/06 14:38:14;;;;;;;;;;;;;;;;;;5123596;27;19971;-68
2023/02/06 14:40:41;;;;;;;;;;;;;;;;;;5134694;27;20377;-68
2023/02/06 14:43:07;;;;;;;;;;;;;;;;;;5136033;27;19996;-68
2023/02/06 14:45:33;;;;;;;;;;;;;;;;;;5133923;27;19947;-69
2023/02/06 14:47:59;;;;;;;;;;;;;;;;;;5115359;28;19959;-68
2023/02/06 14:50:25;;;;;;;;;;;;;;;;;;5117544;27;20449;-68
2023/02/06 14:52:50;;;;;;;;;;;;;;;;;;5115147;27;19979;-67
2023/02/06 14:55:16;;;;;;;;;;;;;;;;;;5115199;28;19951;-68
2023/02/06 14:57:42;;;;;;;;;;;;;;;;;;5115081;28;20430;-67
2023/02/06 15:00:08;;;;;;;;;;;;;;;;;;5113873;28;19952;-68
2023/02/06 15:02:34;;;;;;;;;;;;;;;;;;5114636;28;20059;-67
2023/02/06 15:05:00;;;;;;;;;;;;;;;;;;5113857;27;19961;-71
2023/02/06 15:07:27;;;;;;;;;;;;;;;;;;5131605;27;20435;-72
2023/02/06 15:09:53;;;;;;;;;;;;;;;;;;5135118;27;19986;-70
2023/02/06 15:12:19;;;;;;;;;;;;;;;;;;5135940;27;19985;-70
2023/02/06 15:14:44;;;;;;;;;;;;;;;;;;5135208;27;19973;-69
2023/02/06 15:17:10;;;;;;;;;;;;;;;;;;5135213;27;20047;-68
2023/02/06 15:19:36;;;;;;;;;;;;;;;;;;5134085;27;20389;-67
2023/02/06 15:22:02;;;;;;;;;;;;;;;;;;5135337;27;19958;-68
2023/02/06 15:24:28;;;;;;;;;;;;;;;;;;5135278;27;20367;-70
2023/02/06 15:26:54;;;;;;;;;;;;;;;;;;5134930;27;19951;-69
2023/02/06 15:29:21;;;;;;;;;;;;;;;;;;5135110;27;19952;-70
2023/02/06 15:31:47;;;;;;;;;;;;;;;;;;5132877;27;20387;-69
2023/02/06 15:34:13;;;;;;;;;;;;;;;;;;5134708;27;20038;-69
2023/02/06 15:36:39;;;;;;;;;;;;;;;;;;5114573;28;20450;-70
2023/02/06 15:39:05;;;;;;;;;;;;;;;;;;5114283;28;20047;-68
2023/02/06 15:41:31;;;;;;;;;;;;;;;;;;5114565;28;19983;-69
2023/02/06 15:43:57;;;;;;;;;;;;;;;;;;5114344;28;19950;-70
2023/02/06 15:46:23;;;;;;;;;;;;;;;;;;5114275;28;20077;-69
2023/02/06 15:48:49;;;;;;;;;;;;;;;;;;5114776;28;19952;-70
2023/02/06 15:51:15;;;;;;;;;;;;;;;;;;5129903;28;20023;-69
2023/02/06 15:53:41;;;;;;;;;;;;;;;;;;5135179;28;20571;-69
2023/02/06 15:56:07;;;;;;;;;;;;;;;;;;5134628;28;19947;-70
2023/02/06 15:58:32;;;;;;;;;;;;;;;;;;5134956;28;19951;-70
2023/02/06 16:00:58;;;;;;;;;;;;;;;;;;5130404;28;19951;-69
2023/02/06 16:03:24;;;;;;;;;;;;;;;;;;5122800;28;19958;-68
2023/02/06 16:05:51;;;;;;;;;;;;;;;;;;5118876;28;19989;-69
2023/02/06 16:08:17;;;;;;;;;;;;;;;;;;5119737;28;20055;-68
2023/02/06 16:10:44;;;;;;;;;;;;;;;;;;5135126;28;20397;-68
2023/02/06 16:13:10;;;;;;;;;;;;;;;;;;5132775;28;19984;-69
2023/02/06 16:15:36;;;;;;;;;;;;;;;;;;5125486;28;19963;-69
2023/02/06 16:18:01;;;;;;;;;;;;;;;;;;5124266;28;19954;-69
2023/02/06 16:20:30;;;;;;;;;;;;;;;;;;5120450;28;19958;-68
2023/02/06 16:22:56;;;;;;;;;;;;;;;;;;5114191;28;20006;-68
2023/02/06 16:25:24;;;;;;;;;;;;;;;;;;5114244;28;19956;-70
2023/02/06 16:27:50;;;;;;;;;;;;;;;;;;5113978;28;19961;-69
2023/02/06 16:30:16;;;;;;;;;;;;;;;;;;5124247;28;20094;-68
2023/02/06 16:32:42;;;;;;;;;;;;;;;;;;5116368;28;19976;-70
2023/02/06 16:35:08;;;;;;;;;;;;;;;;;;5121783;27;20019;-68
2023/02/06 16:37:34;;;;;;;;;;;;;;;;;;5117689;28;19958;-68